Aeroporto :
LOGIN :

Iscrizione | Disclaimer

   EN    FR    IT 

 










Sommario :    VFR   VFR Marginale   IFR   IFR Intensivo   IFR Molto Intensivo
Visibilità : 
Base nubi : 
>= 8 km
>= 3000ft
5 / 8 km
1000 / 3000 ft
1500m / 5 km
500 / 1000 ft
800 / 1500m
200 / 500 ft
< 800m
< 200 ft
Simboli :   Temporali  Nebbia  Neve Forte  Precipitazioni Forti  Vento > 20 kt
SIGMETs :   Varie  Temporali  Ghiacco  Turbolenza  Onda orograficha  Ceneri Vulcaniche







- Altitudine del aeroporto : 1306 ft
- Codice IATA : ACH


LSZR - Alten Rhein

ULTIMO METAR :
  • 171450Z 02007KT 330V080 9999 FEW060TCU 24/13 Q1017 NOSIG RMK K

METARs OBSOLETI :
  • 171420Z 02007KT 330V080 9999 FEW060TCU 24/13 Q1017 NOSIG RMK K
  • 171350Z 30010KT 9999 FEW050TCU 24/11 Q1017 NOSIG RMK J
  • 171320Z 06006KT 020V090 9999 VCTS FEW055TCU 26/14 Q1016 NOSIG RMK I
  • 171250Z 06006KT 020V090 9999 FEW055TCU 26/14 Q1016 NOSIG RMK I
  • 171220Z AUTO 04007KT 360V090 9999 //////TCU 26/16 Q1016

TAF TAF LSZR
Valido dal 17 a 15 ore il 18 a 00 ore UTC


171425Z 1715/1724 30010KT 9999 SCT045TCU
TEMPO 1715/1719 SHRA
PROB40
TEMPO 1715/1718 32015G30KT TSRA SCT050CB
BECMG 1718/1721 VRB03KT
ATIS : +41 71 858 51 66
Nessun NOTAM noto per questo aeroporto.



MetMap, La meteo Aeronautica in un colpo d'occhio ! - Copyright ORBIFLY Dicembre 2007 - Disclaimer

ORBIFLY MET'MAP TEAM :

Programmazione e sviluppo : Alexandra Zaïnal
Concezione e sviluppo : Baudouin d'Aumeries
Co-Programmazione e sviluppo : Marc-Olivier Méhu
Supporto tecnico e logistico : Manuel Goepfert
Aiuto per la traduzione : Arnaldo La Scala

Contatto : metmap@orbifly.com




FONTI E CREDITI :

   NOAA